createdAt,value
2022-11-09T00:00:12.901Z,27.35
2022-11-09T00:00:35.784Z,25.08
2022-11-09T00:01:01.648Z,27.17
2022-11-09T00:01:24.514Z,26.65
2022-11-09T00:01:47.181Z,25.30
2022-11-09T00:02:09.854Z,25.67
2022-11-09T00:02:32.548Z,27.55
2022-11-09T00:02:56.395Z,25.17
2022-11-09T00:03:19.443Z,24.30
2022-11-09T00:03:42.644Z,25.67
2022-11-09T00:04:05.822Z,27.95
2022-11-09T00:04:28.619Z,27.65
2022-11-09T00:04:51.338Z,24.17
2022-11-09T00:05:14.183Z,24.65
2022-11-09T00:05:36.944Z,26.70
2022-11-09T00:06:00.422Z,27.92
2022-11-09T00:06:23.215Z,28.95
2022-11-09T00:06:45.987Z,25.50
2022-11-09T00:07:08.942Z,26.55
2022-11-09T00:07:32.342Z,25.50
2022-11-09T00:07:55.103Z,24.95
2022-11-09T00:08:17.817Z,27.20
2022-11-09T00:08:41.098Z,27.48
2022-11-09T00:09:07.700Z,27.65
2022-11-09T00:09:30.924Z,26.33
2022-11-09T00:09:53.776Z,25.40
2022-11-09T00:10:16.678Z,27.15
2022-11-09T00:10:39.302Z,27.73
2022-11-09T00:11:06.748Z,26.45
2022-11-09T00:11:29.403Z,27.50
2022-11-09T00:11:52.104Z,28.40
2022-11-09T00:12:14.772Z,26.38
2022-11-09T00:12:37.442Z,26.45
2022-11-09T00:13:00.142Z,28.27
2022-11-09T00:13:23.278Z,25.88
2022-11-09T00:13:46.577Z,25.38
2022-11-09T00:14:14.257Z,25.77
2022-11-09T00:14:37.325Z,26.55
2022-11-09T00:14:59.944Z,23.92
2022-11-09T00:15:22.712Z,26.27
2022-11-09T00:15:45.374Z,24.58
2022-11-09T00:16:09.286Z,23.25
2022-11-09T00:16:31.928Z,25.35
2022-11-09T00:16:54.724Z,25.10
2022-11-09T00:17:17.367Z,27.25
2022-11-09T00:17:40.021Z,26.67
2022-11-09T00:18:05.475Z,27.27
2022-11-09T00:18:28.358Z,28.58
2022-11-09T00:18:52.018Z,28.23
2022-11-09T00:19:14.888Z,28.83
2022-11-09T00:19:37.627Z,28.20
2022-11-09T00:20:00.326Z,27.23
2022-11-09T00:20:23.147Z,26.00
2022-11-09T00:20:47.910Z,31.05
2022-11-09T00:21:12.163Z,30.30
2022-11-09T00:21:34.804Z,29.83
2022-11-09T00:21:57.528Z,30.58
2022-11-09T00:22:20.231Z,30.98
2022-11-09T00:22:43.211Z,24.95
2022-11-09T00:23:06.081Z,28.45
2022-11-09T00:23:28.791Z,28.60
2022-11-09T00:23:51.532Z,27.27
2022-11-09T00:24:16.857Z,27.67
2022-11-09T00:24:39.606Z,25.40
2022-11-09T00:25:02.460Z,25.70
2022-11-09T00:25:25.276Z,28.73
2022-11-09T00:25:48.033Z,28.42
2022-11-09T00:26:13.067Z,27.23
2022-11-09T00:26:35.892Z,28.77
2022-11-09T00:26:58.642Z,30.75
2022-11-09T00:27:21.396Z,31.23
2022-11-09T00:27:44.118Z,28.92
2022-11-09T00:28:06.875Z,25.88
2022-11-09T00:28:29.636Z,29.70
2022-11-09T00:28:53.146Z,30.25
2022-11-09T00:29:15.907Z,27.70
2022-11-09T00:29:38.716Z,29.77
2022-11-09T00:30:01.472Z,31.15
2022-11-09T00:30:24.183Z,31.13
2022-11-09T00:30:46.922Z,29.45
2022-11-09T00:31:12.291Z,27.10
2022-11-09T00:31:35.579Z,26.80
2022-11-09T00:31:58.452Z,26.67
2022-11-09T00:32:25.229Z,26.27
2022-11-09T00:32:50.241Z,27.60
2022-11-09T00:33:12.944Z,27.58
2022-11-09T00:33:35.632Z,29.75
2022-11-09T00:33:58.572Z,28.08
2022-11-09T00:34:21.399Z,25.42
2022-11-09T00:34:44.336Z,26.80
2022-11-09T00:35:07.596Z,27.77
2022-11-09T00:35:30.371Z,29.27
2022-11-09T00:35:52.952Z,31.73
2022-11-09T00:36:15.667Z,28.50
2022-11-09T00:36:38.413Z,26.73
2022-11-09T00:37:02.242Z,26.42
2022-11-09T00:37:25.071Z,29.65
2022-11-09T00:37:47.979Z,30.98
2022-11-09T00:38:10.779Z,27.85
2022-11-09T00:38:33.825Z,24.92
2022-11-09T00:38:57.532Z,25.95
2022-11-09T00:39:20.287Z,25.40
2022-11-09T00:39:44.172Z,23.55
2022-11-09T00:40:09.038Z,25.98
2022-11-09T00:40:31.841Z,27.52
2022-11-09T00:40:58.721Z,26.23
2022-11-09T00:41:23.187Z,24.38
2022-11-09T00:41:45.882Z,24.08
2022-11-09T00:42:08.588Z,25.15
2022-11-09T00:42:31.251Z,25.88
2022-11-09T00:42:53.872Z,27.88
2022-11-09T00:43:17.257Z,26.55
2022-11-09T00:43:41.601Z,28.13
2022-11-09T00:44:04.807Z,29.00
2022-11-09T00:44:28.007Z,27.65
2022-11-09T00:44:50.756Z,29.33
2022-11-09T00:45:13.602Z,30.15
2022-11-09T00:45:36.382Z,28.38
2022-11-09T00:45:59.192Z,26.23
2022-11-09T00:46:22.154Z,30.45
2022-11-09T00:46:45.240Z,29.13
2022-11-09T00:47:10.787Z,27.83
2022-11-09T00:47:33.526Z,30.10
2022-11-09T00:47:56.220Z,29.00
2022-11-09T00:48:18.972Z,27.50
2022-11-09T00:48:41.733Z,29.15
2022-11-09T00:49:04.496Z,28.92
2022-11-09T00:49:27.193Z,27.75
2022-11-09T00:49:50.056Z,26.52
2022-11-09T00:50:12.774Z,29.65
2022-11-09T00:50:35.522Z,26.52
2022-11-09T00:50:58.317Z,26.38
2022-11-09T00:51:21.121Z,31.42
2022-11-09T00:51:43.891Z,27.83
2022-11-09T00:52:06.619Z,27.25
2022-11-09T00:52:29.357Z,29.65
2022-11-09T00:52:52.048Z,28.88
2022-11-09T00:53:14.746Z,30.25
2022-11-09T00:53:37.433Z,30.75
2022-11-09T00:54:00.150Z,31.77
2022-11-09T00:54:22.872Z,30.88
2022-11-09T00:54:45.726Z,29.58
2022-11-09T00:55:09.342Z,28.92
2022-11-09T00:55:32.037Z,28.92
2022-11-09T00:55:55.944Z,27.48
2022-11-09T00:56:22.825Z,28.10
2022-11-09T00:56:45.592Z,30.52
2022-11-09T00:57:08.363Z,31.02
2022-11-09T00:57:31.138Z,29.10
2022-11-09T00:57:53.885Z,28.15
2022-11-09T00:58:16.542Z,27.08
2022-11-09T00:58:41.762Z,26.88
2022-11-09T00:59:05.027Z,29.35
2022-11-09T00:59:28.798Z,27.33
2022-11-09T00:59:53.767Z,27.58
2022-11-09T01:00:18.147Z,30.60
2022-11-09T01:00:40.915Z,25.88
2022-11-09T01:01:07.303Z,26.23
2022-11-09T01:01:30.156Z,27.67
2022-11-09T01:01:53.327Z,30.35
2022-11-09T01:02:16.093Z,29.42
2022-11-09T01:02:38.837Z,29.73
2022-11-09T01:03:01.513Z,30.67
2022-11-09T01:03:24.463Z,30.38
2022-11-09T01:03:47.208Z,28.77
2022-11-09T01:04:09.928Z,26.48
2022-11-09T01:04:32.722Z,29.10
2022-11-09T01:04:55.387Z,28.42
2022-11-09T01:05:18.247Z,32.55
2022-11-09T01:05:40.969Z,33.03
2022-11-09T01:06:03.667Z,28.80
2022-11-09T01:06:26.514Z,28.38
2022-11-09T01:06:49.306Z,28.20
2022-11-09T01:07:12.138Z,29.70
2022-11-09T01:07:34.902Z,30.00
2022-11-09T01:07:57.617Z,30.20
2022-11-09T01:08:20.540Z,29.80
2022-11-09T01:08:43.537Z,32.17
2022-11-09T01:09:09.293Z,33.40
2022-11-09T01:09:32.647Z,31.55
2022-11-09T01:09:55.491Z,27.90
2022-11-09T01:10:18.260Z,27.10
2022-11-09T01:10:42.485Z,30.30
2022-11-09T01:11:05.497Z,31.90
2022-11-09T01:11:29.662Z,27.70
2022-11-09T01:11:52.467Z,33.17
2022-11-09T01:12:15.487Z,33.13
2022-11-09T01:12:38.246Z,33.92
2022-11-09T01:13:00.952Z,31.13
2022-11-09T01:13:23.762Z,31.77
2022-11-09T01:13:46.482Z,31.20
2022-11-09T01:14:10.737Z,31.55
2022-11-09T01:14:33.495Z,32.50
2022-11-09T01:14:56.356Z,32.33
2022-11-09T01:15:22.397Z,31.63
2022-11-09T01:15:46.631Z,30.42
2022-11-09T01:16:10.870Z,30.60
2022-11-09T01:16:33.647Z,32.00
2022-11-09T01:16:56.352Z,29.75
2022-11-09T01:17:19.207Z,30.63
2022-11-09T01:17:41.968Z,30.25
2022-11-09T01:18:07.043Z,27.83
2022-11-09T01:18:29.768Z,30.55
2022-11-09T01:18:54.262Z,31.80
2022-11-09T01:19:17.017Z,31.30
2022-11-09T01:19:39.700Z,34.67
2022-11-09T01:20:02.476Z,33.80
2022-11-09T01:20:25.198Z,31.10
2022-11-09T01:20:49.026Z,29.38
2022-11-09T01:21:13.037Z,31.33
2022-11-09T01:21:35.911Z,33.28
2022-11-09T01:22:01.174Z,33.47
2022-11-09T01:22:23.891Z,29.58
2022-11-09T01:22:46.873Z,31.38
2022-11-09T01:23:12.082Z,32.22
2022-11-09T01:23:34.883Z,32.10
2022-11-09T01:23:58.643Z,29.25
2022-11-09T01:24:21.538Z,29.00
2022-11-09T01:24:44.322Z,28.67
2022-11-09T01:25:07.690Z,29.13
2022-11-09T01:25:30.403Z,32.25
2022-11-09T01:25:58.642Z,28.75
2022-11-09T01:26:21.448Z,29.77
2022-11-09T01:26:45.607Z,29.02
2022-11-09T01:27:08.327Z,29.80
2022-11-09T01:27:31.043Z,28.58
2022-11-09T01:27:53.763Z,29.45
2022-11-09T01:28:16.518Z,28.55
2022-11-09T01:28:39.213Z,28.75
2022-11-09T01:29:01.947Z,30.27
2022-11-09T01:29:24.583Z,29.70
2022-11-09T01:29:47.323Z,31.73
2022-11-09T01:30:11.211Z,32.10
2022-11-09T01:30:34.398Z,31.92
2022-11-09T01:31:00.497Z,30.65
2022-11-09T01:31:23.364Z,28.60
2022-11-09T01:31:46.951Z,31.35
2022-11-09T01:32:10.607Z,31.05
2022-11-09T01:32:33.400Z,29.48
2022-11-09T01:32:56.163Z,30.45
2022-11-09T01:33:18.945Z,29.83
2022-11-09T01:33:41.983Z,30.55
2022-11-09T01:34:04.787Z,30.52
2022-11-09T01:34:28.381Z,29.10
2022-11-09T01:34:51.138Z,27.08
2022-11-09T01:35:13.862Z,29.25
2022-11-09T01:35:37.312Z,27.40
2022-11-09T01:36:02.652Z,28.60
2022-11-09T01:36:25.400Z,28.40
2022-11-09T01:36:50.643Z,28.98
2022-11-09T01:37:13.447Z,29.48
2022-11-09T01:37:36.178Z,27.63
2022-11-09T01:37:58.880Z,30.63
2022-11-09T01:38:21.604Z,30.13
2022-11-09T01:38:44.322Z,28.55
2022-11-09T01:39:09.654Z,31.55
2022-11-09T01:39:32.325Z,33.55
2022-11-09T01:39:54.991Z,31.98
2022-11-09T01:40:17.842Z,37.22
2022-11-09T01:40:40.782Z,41.15
2022-11-09T01:41:03.533Z,44.60
2022-11-09T01:41:27.699Z,36.45
2022-11-09T01:41:51.840Z,33.45
2022-11-09T01:42:15.127Z,32.28
2022-11-09T01:42:39.888Z,34.97
2022-11-09T01:43:07.292Z,40.25
2022-11-09T01:43:29.979Z,43.58
2022-11-09T01:44:07.118Z,45.72
2022-11-09T01:44:29.779Z,50.67
2022-11-09T01:45:26.803Z,47.28
2022-11-09T01:45:50.461Z,51.92
2022-11-09T01:46:17.606Z,50.13
2022-11-09T01:46:45.128Z,41.70
2022-11-09T01:47:10.727Z,43.28
2022-11-09T01:47:33.507Z,52.67
2022-11-09T01:48:00.396Z,56.78
2022-11-09T01:48:28.497Z,48.33
2022-11-09T01:48:52.183Z,44.70
2022-11-09T01:49:19.794Z,42.47
2022-11-09T01:49:47.060Z,46.35
2022-11-09T01:50:09.901Z,46.63
2022-11-09T01:50:39.058Z,44.97
2022-11-09T01:51:03.690Z,45.70
2022-11-09T01:51:27.759Z,40.65
2022-11-09T01:51:52.489Z,36.83
2022-11-09T01:52:16.958Z,51.85
2022-11-09T01:52:40.668Z,37.03
2022-11-09T01:53:04.083Z,38.53
2022-11-09T01:53:27.971Z,48.50
2022-11-09T01:53:52.027Z,57.70
2022-11-09T01:54:18.391Z,90.55
2022-11-09T01:54:43.856Z,131.43
2022-11-09T01:55:08.302Z,141.20
2022-11-09T01:55:30.975Z,74.68
2022-11-09T01:55:55.077Z,64.40
2022-11-09T01:56:17.797Z,65.78
2022-11-09T01:56:40.640Z,50.28
2022-11-09T01:57:06.467Z,43.90
2022-11-09T01:57:30.782Z,48.50
2022-11-09T01:57:55.893Z,49.45
2022-11-09T01:58:21.106Z,57.42
2022-11-09T01:58:46.402Z,53.72
2022-11-09T01:59:10.480Z,52.42
2022-11-09T01:59:36.702Z,54.55
2022-11-09T02:00:01.267Z,53.13
2022-11-09T02:00:24.152Z,73.85
2022-11-09T02:00:50.601Z,80.82
2022-11-09T02:01:13.621Z,65.47
2022-11-09T02:01:36.537Z,71.35
2022-11-09T02:01:59.681Z,69.18
2022-11-09T02:02:22.870Z,60.13
2022-11-09T02:02:48.076Z,58.25
2022-11-09T02:03:12.967Z,74.95
2022-11-09T02:03:38.031Z,65.15
2022-11-09T02:04:03.291Z,66.82
2022-11-09T02:04:27.583Z,63.05
2022-11-09T02:04:52.004Z,61.90
2022-11-09T02:05:18.381Z,51.65
2022-11-09T02:05:42.157Z,59.08
2022-11-09T02:06:06.393Z,56.67
2022-11-09T02:06:29.929Z,55.83
2022-11-09T02:06:52.687Z,47.60
2022-11-09T02:07:15.508Z,45.20
2022-11-09T02:07:38.331Z,44.00
2022-11-09T02:08:02.094Z,43.50
2022-11-09T02:08:25.277Z,55.88
2022-11-09T02:08:48.022Z,57.45
2022-11-09T02:09:21.057Z,49.33
2022-11-09T02:09:47.871Z,45.05
2022-11-09T02:10:13.762Z,60.50
2022-11-09T02:10:43.832Z,47.65
2022-11-09T02:11:09.172Z,49.05
2022-11-09T02:11:31.948Z,57.50
2022-11-09T02:11:54.733Z,60.85
2022-11-09T02:12:19.366Z,70.40
2022-11-09T02:12:42.140Z,72.55
2022-11-09T02:13:04.797Z,63.20
2022-11-09T02:13:27.578Z,57.10
2022-11-09T02:13:54.741Z,61.60
2022-11-09T02:14:18.265Z,54.85
2022-11-09T02:14:41.137Z,63.38
2022-11-09T02:15:05.292Z,55.35
2022-11-09T02:15:28.008Z,56.60
2022-11-09T02:15:50.721Z,63.38
2022-11-09T02:16:13.914Z,60.33
2022-11-09T02:16:36.677Z,90.05
2022-11-09T02:16:59.395Z,84.72
2022-11-09T02:17:22.146Z,64.85
2022-11-09T02:17:44.866Z,68.63
2022-11-09T02:18:07.600Z,67.90
2022-11-09T02:18:31.158Z,59.50
2022-11-09T02:18:54.870Z,59.58
2022-11-09T02:19:17.596Z,49.00
2022-11-09T02:19:40.311Z,56.72
2022-11-09T02:20:09.355Z,57.97
2022-11-09T02:20:32.110Z,57.88
2022-11-09T02:20:55.795Z,64.75
2022-11-09T02:21:18.585Z,56.65
2022-11-09T02:21:41.316Z,60.50
2022-11-09T02:22:04.186Z,45.13
2022-11-09T02:22:26.872Z,40.00
2022-11-09T02:22:49.630Z,42.13
2022-11-09T02:23:12.449Z,42.15
2022-11-09T02:23:35.121Z,43.22
2022-11-09T02:23:58.072Z,43.03
2022-11-09T02:24:21.096Z,50.03
2022-11-09T02:24:43.895Z,45.60
2022-11-09T02:25:08.167Z,45.05
2022-11-09T02:25:30.935Z,51.17
2022-11-09T02:25:55.690Z,42.65
2022-11-09T02:26:19.841Z,42.92
2022-11-09T02:26:44.200Z,39.10
2022-11-09T02:27:07.371Z,49.67
2022-11-09T02:27:30.098Z,39.88
2022-11-09T02:27:52.796Z,47.35
2022-11-09T02:28:15.771Z,47.78
2022-11-09T02:28:38.824Z,54.30
2022-11-09T02:29:03.875Z,60.72
2022-11-09T02:29:28.505Z,49.47
2022-11-09T02:29:51.256Z,36.55
2022-11-09T02:30:14.510Z,41.15
2022-11-09T02:30:37.211Z,42.53
2022-11-09T02:30:59.916Z,35.03
2022-11-09T02:31:24.831Z,33.90
2022-11-09T02:31:49.915Z,32.83
2022-11-09T02:32:15.030Z,35.22
2022-11-09T02:32:37.750Z,30.48
2022-11-09T02:33:00.540Z,38.88
2022-11-09T02:33:23.436Z,38.30
2022-11-09T02:33:54.409Z,34.00
2022-11-09T02:34:18.575Z,27.27
2022-11-09T02:34:41.375Z,27.10
2022-11-09T02:35:04.477Z,23.15
2022-11-09T02:35:28.555Z,24.40
2022-11-09T02:35:51.258Z,23.63
2022-11-09T02:36:13.925Z,21.20
2022-11-09T02:36:36.632Z,24.83
2022-11-09T02:36:59.374Z,23.10
2022-11-09T02:37:26.810Z,21.05
2022-11-09T02:37:49.914Z,24.25
2022-11-09T02:38:13.176Z,24.05
2022-11-09T02:38:35.903Z,25.95
2022-11-09T02:38:58.711Z,25.77
2022-11-09T02:39:23.370Z,23.88
2022-11-09T02:39:46.072Z,20.30
2022-11-09T02:40:12.657Z,22.30
2022-11-09T02:40:37.915Z,24.50
2022-11-09T02:41:00.637Z,22.77
2022-11-09T02:41:23.359Z,20.70
2022-11-09T02:41:50.559Z,19.00
2022-11-09T02:42:18.333Z,19.15
2022-11-09T02:42:44.020Z,19.27
2022-11-09T02:43:06.753Z,21.20
2022-11-09T02:43:29.619Z,19.90
2022-11-09T02:43:53.749Z,19.52
2022-11-09T02:44:19.362Z,17.13
2022-11-09T02:44:46.411Z,18.65
2022-11-09T02:45:10.729Z,18.25
2022-11-09T02:45:33.553Z,18.63
2022-11-09T02:45:56.349Z,17.35
2022-11-09T02:46:24.131Z,16.42
2022-11-09T02:46:46.904Z,16.48
2022-11-09T02:47:09.630Z,18.42
2022-11-09T02:47:32.272Z,16.67
2022-11-09T02:47:55.039Z,15.98
2022-11-09T02:48:17.795Z,16.30
2022-11-09T02:48:40.463Z,17.83
2022-11-09T02:49:05.939Z,17.90
2022-11-09T02:49:28.619Z,17.48
2022-11-09T02:49:51.540Z,16.85
2022-11-09T02:50:14.269Z,16.20
2022-11-09T02:50:38.444Z,17.83
2022-11-09T02:51:01.202Z,16.08
2022-11-09T02:51:23.889Z,18.48
2022-11-09T02:51:46.669Z,17.85
2022-11-09T02:52:09.430Z,17.08
2022-11-09T02:52:32.155Z,16.35
2022-11-09T02:52:54.910Z,17.25
2022-11-09T02:53:18.263Z,16.25
2022-11-09T02:53:43.859Z,17.73
2022-11-09T02:54:06.785Z,18.63
2022-11-09T02:54:29.578Z,17.08
2022-11-09T02:54:52.304Z,16.67
2022-11-09T02:55:15.208Z,17.92
2022-11-09T02:55:37.893Z,17.13
2022-11-09T02:56:00.668Z,17.77
2022-11-09T02:56:23.546Z,16.77
2022-11-09T02:56:46.258Z,15.80
2022-11-09T02:57:08.994Z,15.57
2022-11-09T02:57:31.676Z,16.77
2022-11-09T02:57:54.403Z,17.25
2022-11-09T02:58:17.189Z,16.58
2022-11-09T02:58:39.973Z,16.50
2022-11-09T02:59:03.525Z,15.90
2022-11-09T02:59:27.379Z,15.23
2022-11-09T02:59:50.078Z,17.00
2022-11-09T03:00:13.378Z,17.42
2022-11-09T03:00:36.004Z,16.50
2022-11-09T03:00:58.806Z,14.60
2022-11-09T03:01:21.628Z,14.23
2022-11-09T03:01:44.411Z,15.52
2022-11-09T03:02:07.243Z,15.68
2022-11-09T03:02:29.943Z,17.67
2022-11-09T03:02:52.743Z,16.42
2022-11-09T03:03:15.519Z,14.90
2022-11-09T03:03:38.260Z,14.98
2022-11-09T03:04:00.926Z,15.40
2022-11-09T03:04:23.785Z,17.27
2022-11-09T03:04:46.545Z,16.48
2022-11-09T03:05:09.662Z,16.10
2022-11-09T03:05:32.483Z,16.20
2022-11-09T03:05:56.643Z,15.30
2022-11-09T03:06:19.533Z,16.05
2022-11-09T03:06:42.398Z,15.27
2022-11-09T03:07:05.277Z,15.13
2022-11-09T03:07:28.164Z,15.85
2022-11-09T03:07:50.878Z,15.88
2022-11-09T03:08:16.123Z,15.40
2022-11-09T03:08:38.895Z,14.13
2022-11-09T03:09:01.884Z,15.38
2022-11-09T03:09:24.634Z,15.85
2022-11-09T03:09:50.238Z,17.27
2022-11-09T03:10:12.986Z,17.85
2022-11-09T03:10:35.778Z,18.75
2022-11-09T03:10:59.843Z,18.45
2022-11-09T03:11:22.658Z,17.92
2022-11-09T03:11:45.437Z,16.05
2022-11-09T03:12:29.270Z,17.13
2022-11-09T03:12:51.984Z,15.18
2022-11-09T03:13:14.704Z,16.05
2022-11-09T03:13:37.469Z,16.33
2022-11-09T03:14:00.169Z,16.02
2022-11-09T03:14:23.889Z,16.65
2022-11-09T03:14:47.223Z,16.50
2022-11-09T03:15:10.616Z,16.50
2022-11-09T03:15:33.344Z,17.23
2022-11-09T03:15:56.043Z,16.98
2022-11-09T03:16:18.729Z,17.10
2022-11-09T03:16:44.209Z,18.02
2022-11-09T03:17:09.280Z,17.80
2022-11-09T03:17:32.233Z,16.20
2022-11-09T03:17:55.029Z,18.30
2022-11-09T03:18:17.743Z,17.98
2022-11-09T03:18:40.476Z,16.92
2022-11-09T03:19:03.238Z,16.90
2022-11-09T03:19:26.119Z,17.48
2022-11-09T03:19:52.149Z,16.80
2022-11-09T03:20:15.114Z,16.67
2022-11-09T03:20:37.829Z,17.10
2022-11-09T03:21:05.133Z,17.23
2022-11-09T03:21:28.463Z,17.23
2022-11-09T03:21:51.229Z,17.00
2022-11-09T03:22:13.908Z,16.83
2022-11-09T03:22:36.695Z,18.33
2022-11-09T03:23:01.759Z,18.30
2022-11-09T03:23:24.558Z,18.48
2022-11-09T03:23:47.344Z,17.55
2022-11-09T03:24:10.183Z,15.45
2022-11-09T03:24:32.994Z,15.52
2022-11-09T03:24:55.854Z,15.75
2022-11-09T03:25:18.635Z,15.85
2022-11-09T03:25:41.369Z,16.77
2022-11-09T03:26:04.043Z,16.30
2022-11-09T03:26:26.814Z,15.07
2022-11-09T03:26:49.488Z,15.00
2022-11-09T03:27:12.256Z,16.17
2022-11-09T03:27:34.943Z,15.82
2022-11-09T03:27:58.589Z,15.15
2022-11-09T03:28:22.374Z,15.40
2022-11-09T03:28:45.138Z,15.57
2022-11-09T03:29:07.999Z,15.88
2022-11-09T03:29:31.014Z,15.48
2022-11-09T03:29:55.685Z,17.75
2022-11-09T03:30:19.429Z,15.43
2022-11-09T03:30:42.071Z,17.58
2022-11-09T03:31:05.014Z,17.95
2022-11-09T03:31:27.723Z,18.52
2022-11-09T03:31:50.518Z,17.15
2022-11-09T03:32:13.252Z,19.05
2022-11-09T03:32:35.931Z,18.45
2022-11-09T03:32:59.394Z,18.17
2022-11-09T03:33:22.419Z,16.98
2022-11-09T03:33:45.513Z,18.63
2022-11-09T03:34:08.278Z,18.48
2022-11-09T03:34:30.955Z,17.33
2022-11-09T03:34:53.666Z,17.80
2022-11-09T03:35:16.635Z,16.42
2022-11-09T03:35:39.435Z,17.63
2022-11-09T03:36:02.098Z,19.90
2022-11-09T03:36:26.318Z,17.75
2022-11-09T03:36:49.181Z,17.25
2022-11-09T03:37:11.976Z,16.73
2022-11-09T03:37:34.784Z,19.25
2022-11-09T03:38:00.854Z,20.73
2022-11-09T03:38:26.429Z,17.98
2022-11-09T03:38:49.109Z,20.30
2022-11-09T03:39:11.843Z,20.23
2022-11-09T03:39:34.618Z,18.77
2022-11-09T03:39:57.325Z,19.08
2022-11-09T03:40:20.000Z,19.92
2022-11-09T03:40:42.837Z,19.30
2022-11-09T03:41:05.858Z,19.63
2022-11-09T03:41:28.546Z,21.80
2022-11-09T03:41:51.292Z,20.75
2022-11-09T03:42:14.062Z,21.75
2022-11-09T03:42:39.999Z,19.88
2022-11-09T03:43:02.833Z,18.30
2022-11-09T03:43:25.588Z,18.92
2022-11-09T03:43:48.335Z,20.83
2022-11-09T03:44:11.029Z,20.98
2022-11-09T03:44:33.761Z,23.52
2022-11-09T03:44:59.117Z,23.05
2022-11-09T03:45:21.864Z,20.13
2022-11-09T03:45:44.507Z,19.42
2022-11-09T03:46:07.164Z,20.75
2022-11-09T03:46:29.918Z,17.00
2022-11-09T03:46:52.668Z,15.73
2022-11-09T03:47:15.391Z,17.83
2022-11-09T03:47:40.811Z,20.45
2022-11-09T03:48:03.842Z,18.10
2022-11-09T03:48:26.589Z,15.85
2022-11-09T03:48:49.264Z,15.07
2022-11-09T03:49:11.979Z,14.95
2022-11-09T03:49:37.209Z,15.30
2022-11-09T03:49:59.880Z,16.48
2022-11-09T03:50:22.784Z,16.73
2022-11-09T03:50:45.492Z,17.17
2022-11-09T03:51:08.239Z,17.20
2022-11-09T03:51:32.364Z,15.23
2022-11-09T03:51:54.996Z,16.00
2022-11-09T03:52:17.699Z,15.73
2022-11-09T03:52:40.486Z,16.20
2022-11-09T03:53:03.276Z,17.42
2022-11-09T03:53:25.969Z,20.08
2022-11-09T03:53:48.722Z,19.40
2022-11-09T03:54:11.410Z,20.73
2022-11-09T03:54:36.265Z,17.92
2022-11-09T03:54:59.069Z,16.40
2022-11-09T03:55:21.760Z,18.17
2022-11-09T03:55:44.558Z,18.48
2022-11-09T03:56:10.489Z,17.75
2022-11-09T03:56:33.177Z,19.23
2022-11-09T03:56:55.969Z,18.50
2022-11-09T03:57:18.677Z,17.73
2022-11-09T03:57:41.328Z,17.65
2022-11-09T03:58:04.173Z,17.55
2022-11-09T03:58:26.875Z,18.27
2022-11-09T03:58:49.575Z,17.63
2022-11-09T03:59:13.265Z,19.33
2022-11-09T03:59:36.479Z,20.77
2022-11-09T03:59:59.225Z,20.80
2022-11-09T04:00:22.816Z,19.80
2022-11-09T04:00:45.555Z,19.27
2022-11-09T04:01:08.469Z,18.63
2022-11-09T04:01:31.439Z,19.02
2022-11-09T04:01:54.207Z,19.83
2022-11-09T04:02:16.899Z,18.45
2022-11-09T04:02:39.639Z,18.85
2022-11-09T04:03:02.353Z,18.10
2022-11-09T04:03:27.859Z,18.15
2022-11-09T04:03:50.641Z,20.48
2022-11-09T04:04:13.397Z,19.10
2022-11-09T04:04:36.048Z,15.93
2022-11-09T04:04:58.944Z,17.67
2022-11-09T04:05:21.831Z,19.90
2022-11-09T04:05:44.482Z,20.45
2022-11-09T04:06:07.316Z,17.67
2022-11-09T04:06:31.745Z,17.45
2022-11-09T04:06:54.668Z,17.25
2022-11-09T04:07:17.682Z,17.00
2022-11-09T04:07:40.679Z,17.33
2022-11-09T04:08:03.453Z,18.45
2022-11-09T04:08:26.134Z,17.52
2022-11-09T04:08:51.495Z,18.20
2022-11-09T04:09:14.964Z,19.05
2022-11-09T04:09:37.669Z,16.33
2022-11-09T04:10:00.436Z,15.70
2022-11-09T04:10:23.477Z,15.68
2022-11-09T04:10:46.170Z,15.45
2022-11-09T04:11:08.944Z,17.35
2022-11-09T04:11:32.826Z,17.40
2022-11-09T04:11:55.519Z,15.90
2022-11-09T04:12:18.214Z,16.30
2022-11-09T04:12:41.005Z,16.02
2022-11-09T04:13:03.770Z,17.20
2022-11-09T04:13:26.509Z,16.02
2022-11-09T04:13:49.319Z,13.70
2022-11-09T04:14:12.396Z,13.85
2022-11-09T04:14:35.068Z,14.55
2022-11-09T04:15:00.544Z,15.80
2022-11-09T04:15:23.359Z,16.00
2022-11-09T04:15:46.050Z,15.57
2022-11-09T04:16:08.888Z,15.52
2022-11-09T04:16:31.652Z,16.10
2022-11-09T04:16:56.598Z,15.57
2022-11-09T04:17:19.394Z,15.48
2022-11-09T04:17:42.240Z,15.73
2022-11-09T04:18:05.001Z,14.02
2022-11-09T04:18:27.737Z,14.45
2022-11-09T04:18:50.391Z,13.98
2022-11-09T04:19:13.510Z,15.02
2022-11-09T04:19:36.421Z,14.60
2022-11-09T04:20:02.205Z,14.80
2022-11-09T04:20:25.207Z,15.43
2022-11-09T04:20:50.087Z,14.45
2022-11-09T04:21:12.894Z,14.00
2022-11-09T04:21:38.074Z,14.13
2022-11-09T04:22:01.189Z,14.10
2022-11-09T04:22:23.909Z,14.48
2022-11-09T04:22:46.617Z,15.50
2022-11-09T04:23:11.916Z,14.70
2022-11-09T04:23:34.644Z,14.90
2022-11-09T04:23:57.318Z,14.77
2022-11-09T04:24:20.014Z,14.82
2022-11-09T04:24:43.676Z,15.88
2022-11-09T04:25:09.165Z,15.88
2022-11-09T04:25:32.959Z,14.60
2022-11-09T04:25:57.829Z,14.88
2022-11-09T04:26:20.589Z,16.15
2022-11-09T04:26:43.259Z,16.00
2022-11-09T04:27:06.585Z,15.40
2022-11-09T04:27:30.114Z,16.73
2022-11-09T04:27:56.339Z,16.92
2022-11-09T04:28:19.027Z,17.88
2022-11-09T04:28:41.730Z,18.15
2022-11-09T04:29:04.431Z,16.10
2022-11-09T04:29:27.169Z,15.52
2022-11-09T04:29:49.755Z,14.65
2022-11-09T04:30:12.976Z,15.13
2022-11-09T04:30:36.041Z,16.15
2022-11-09T04:31:01.286Z,16.50
2022-11-09T04:31:27.898Z,17.08
2022-11-09T04:31:51.282Z,16.25
2022-11-09T04:32:13.943Z,14.35
2022-11-09T04:32:36.762Z,14.25
2022-11-09T04:33:00.178Z,15.60
2022-11-09T04:33:23.127Z,15.10
2022-11-09T04:33:49.888Z,16.05
2022-11-09T04:34:12.637Z,16.63
2022-11-09T04:34:35.347Z,16.40
2022-11-09T04:34:58.208Z,16.17
2022-11-09T04:35:20.838Z,16.58
2022-11-09T04:35:43.527Z,15.63
2022-11-09T04:36:06.566Z,16.80
2022-11-09T04:36:29.227Z,16.75
2022-11-09T04:36:53.382Z,14.38
2022-11-09T04:37:16.046Z,14.77
2022-11-09T04:37:38.793Z,14.50
2022-11-09T04:38:02.548Z,15.07
2022-11-09T04:38:25.255Z,15.13
2022-11-09T04:38:48.076Z,14.77
2022-11-09T04:39:10.913Z,13.38
2022-11-09T04:39:33.847Z,13.52
2022-11-09T04:39:56.570Z,15.57
2022-11-09T04:40:22.262Z,15.07
2022-11-09T04:40:44.949Z,14.00
2022-11-09T04:41:08.642Z,15.60
2022-11-09T04:41:31.366Z,14.52
2022-11-09T04:41:54.047Z,14.93
2022-11-09T04:42:16.848Z,14.30
2022-11-09T04:42:39.528Z,14.50
2022-11-09T04:43:02.292Z,13.20
2022-11-09T04:43:24.977Z,14.52
2022-11-09T04:43:47.918Z,12.55
2022-11-09T04:44:10.682Z,13.35
2022-11-09T04:44:33.442Z,13.82
2022-11-09T04:44:57.143Z,14.77
2022-11-09T04:45:19.842Z,14.82
2022-11-09T04:45:42.543Z,15.85
2022-11-09T04:46:05.588Z,14.65
2022-11-09T04:46:28.326Z,13.93
2022-11-09T04:46:50.993Z,14.18
2022-11-09T04:47:13.752Z,16.00
2022-11-09T04:47:36.522Z,15.85
2022-11-09T04:47:59.193Z,17.50
2022-11-09T04:48:21.922Z,16.27
2022-11-09T04:48:44.662Z,16.10
2022-11-09T04:49:07.627Z,14.75
2022-11-09T04:49:30.389Z,16.27
2022-11-09T04:49:54.126Z,15.80
2022-11-09T04:50:17.090Z,15.95
2022-11-09T04:50:39.826Z,16.08
2022-11-09T04:51:02.854Z,14.15
2022-11-09T04:51:25.923Z,12.85
2022-11-09T04:51:48.667Z,12.75
2022-11-09T04:52:15.307Z,14.55
2022-11-09T04:52:38.188Z,13.75
2022-11-09T04:53:07.903Z,13.13
2022-11-09T04:53:30.984Z,13.60
2022-11-09T04:53:53.713Z,15.00
2022-11-09T04:54:16.445Z,15.73
2022-11-09T04:54:39.192Z,16.77
2022-11-09T04:55:02.045Z,16.88
2022-11-09T04:55:24.688Z,14.10
2022-11-09T04:55:47.386Z,14.93
2022-11-09T04:56:10.153Z,14.90
2022-11-09T04:56:35.329Z,15.30
2022-11-09T04:56:58.069Z,16.85
2022-11-09T04:57:20.758Z,14.60
2022-11-09T04:57:43.514Z,13.88
2022-11-09T04:58:07.272Z,16.40
2022-11-09T04:58:30.053Z,16.30
2022-11-09T04:58:52.768Z,16.15
2022-11-09T04:59:15.479Z,17.88
2022-11-09T04:59:38.164Z,18.23
2022-11-09T05:00:00.818Z,17.60
2022-11-09T05:00:23.672Z,16.63
2022-11-09T05:00:46.378Z,19.13
2022-11-09T05:01:11.241Z,17.23
2022-11-09T05:01:34.008Z,19.98
2022-11-09T05:01:56.723Z,16.73
2022-11-09T05:02:22.667Z,16.38
2022-11-09T05:02:46.422Z,16.77